sensor_id;sensor_type;location;lat;lon;timestamp;pressure;altitude;pressure_sealevel;temperature;humidity
42761;BME280;31672;47.638;19.026;2023-03-15T00:01:21;98868.63;;;9.03;79.47
42761;BME280;31672;47.638;19.026;2023-03-15T00:06:33;98883.50;;;9.04;79.21
42761;BME280;31672;47.638;19.026;2023-03-15T00:11:37;98882.97;;;9.08;77.26
42761;BME280;31672;47.638;19.026;2023-03-15T00:16:42;98883.78;;;9.09;76.52
42761;BME280;31672;47.638;19.026;2023-03-15T00:21:45;98906.81;;;9.08;75.99
42761;BME280;31672;47.638;19.026;2023-03-15T00:26:48;98901.69;;;9.07;75.33
42761;BME280;31672;47.638;19.026;2023-03-15T00:31:50;98915.31;;;9.04;75.50
42761;BME280;31672;47.638;19.026;2023-03-15T00:36:53;98922.84;;;9.00;74.51
42761;BME280;31672;47.638;19.026;2023-03-15T00:41:56;98926.06;;;8.96;74.48
42761;BME280;31672;47.638;19.026;2023-03-15T00:46:59;98920.50;;;8.91;73.98
42761;BME280;31672;47.638;19.026;2023-03-15T00:52:02;98923.69;;;8.86;73.23
42761;BME280;31672;47.638;19.026;2023-03-15T00:57:06;98916.50;;;8.80;72.85
42761;BME280;31672;47.638;19.026;2023-03-15T01:02:09;98906.47;;;8.75;72.65
42761;BME280;31672;47.638;19.026;2023-03-15T01:07:13;98889.69;;;8.68;72.07
42761;BME280;31672;47.638;19.026;2023-03-15T01:12:16;98895.72;;;8.62;71.88
42761;BME280;31672;47.638;19.026;2023-03-15T01:17:19;98901.56;;;8.57;71.12
42761;BME280;31672;47.638;19.026;2023-03-15T01:22:22;98890.75;;;8.52;71.06
42761;BME280;31672;47.638;19.026;2023-03-15T01:27:26;98901.06;;;8.47;71.39
42761;BME280;31672;47.638;19.026;2023-03-15T01:32:29;98913.84;;;8.44;71.01
42761;BME280;31672;47.638;19.026;2023-03-15T01:37:32;98911.94;;;8.38;71.49
42761;BME280;31672;47.638;19.026;2023-03-15T01:43:17;98902.69;;;8.33;71.17
42761;BME280;31672;47.638;19.026;2023-03-15T01:48:24;98919.31;;;8.27;71.46
42761;BME280;31672;47.638;19.026;2023-03-15T01:53:29;98922.16;;;8.26;71.27
42761;BME280;31672;47.638;19.026;2023-03-15T01:58:33;98918.06;;;8.23;71.38
42761;BME280;31672;47.638;19.026;2023-03-15T02:03:43;98919.41;;;8.19;71.19
42761;BME280;31672;47.638;19.026;2023-03-15T02:08:58;98915.47;;;8.15;71.49
42761;BME280;31672;47.638;19.026;2023-03-15T02:14:04;98902.63;;;8.12;71.53
42761;BME280;31672;47.638;19.026;2023-03-15T02:19:20;98895.44;;;8.06;71.39
42761;BME280;31672;47.638;19.026;2023-03-15T02:25:35;98897.81;;;8.01;71.83
42761;BME280;31672;47.638;19.026;2023-03-15T02:30:17;98909.59;;;7.98;72.14
42761;BME280;31672;47.638;19.026;2023-03-15T02:35:28;98904.84;;;7.94;72.25
42761;BME280;31672;47.638;19.026;2023-03-15T02:40:31;98901.09;;;7.88;72.91
42761;BME280;31672;47.638;19.026;2023-03-15T02:45:35;98903.94;;;7.87;73.05
42761;BME280;31672;47.638;19.026;2023-03-15T02:50:40;98901.28;;;7.87;73.17
42761;BME280;31672;47.638;19.026;2023-03-15T02:55:42;98890.03;;;7.85;73.61
42761;BME280;31672;47.638;19.026;2023-03-15T03:00:45;98883.59;;;7.87;73.50
42761;BME280;31672;47.638;19.026;2023-03-15T03:05:48;98883.03;;;7.92;73.27
42761;BME280;31672;47.638;19.026;2023-03-15T03:10:51;98887.94;;;7.95;72.72
42761;BME280;31672;47.638;19.026;2023-03-15T03:15:54;98875.34;;;7.97;71.92
42761;BME280;31672;47.638;19.026;2023-03-15T03:21:04;98887.94;;;7.95;70.22
42761;BME280;31672;47.638;19.026;2023-03-15T03:26:17;98886.13;;;7.95;69.36
42761;BME280;31672;47.638;19.026;2023-03-15T03:31:24;98882.84;;;7.93;68.96
42761;BME280;31672;47.638;19.026;2023-03-15T03:36:27;98891.13;;;7.90;68.50
42761;BME280;31672;47.638;19.026;2023-03-15T03:41:30;98893.97;;;7.89;67.56
42761;BME280;31672;47.638;19.026;2023-03-15T03:46:33;98890.50;;;7.88;67.72
42761;BME280;31672;47.638;19.026;2023-03-15T03:51:38;98888.06;;;7.87;67.15
42761;BME280;31672;47.638;19.026;2023-03-15T03:56:41;98871.91;;;7.82;66.15
42761;BME280;31672;47.638;19.026;2023-03-15T04:01:44;98865.34;;;7.77;65.93
42761;BME280;31672;47.638;19.026;2023-03-15T04:06:48;98883.22;;;7.75;65.58
42761;BME280;31672;47.638;19.026;2023-03-15T04:11:52;98885.84;;;7.75;65.31
42761;BME280;31672;47.638;19.026;2023-03-15T04:16:55;98868.97;;;7.76;64.93
42761;BME280;31672;47.638;19.026;2023-03-15T04:21:58;98886.03;;;7.74;65.36
42761;BME280;31672;47.638;19.026;2023-03-15T04:27:08;98894.97;;;7.73;65.46
42761;BME280;31672;47.638;19.026;2023-03-15T04:32:16;98900.16;;;7.66;65.45
42761;BME280;31672;47.638;19.026;2023-03-15T04:37:19;98907.88;;;7.53;65.42
42761;BME280;31672;47.638;19.026;2023-03-15T04:42:22;98927.00;;;7.40;65.87
42761;BME280;31672;47.638;19.026;2023-03-15T04:47:27;98939.34;;;7.25;65.86
42761;BME280;31672;47.638;19.026;2023-03-15T04:52:31;98948.41;;;7.08;66.27
42761;BME280;31672;47.638;19.026;2023-03-15T04:57:34;98960.53;;;6.94;67.01
42761;BME280;31672;47.638;19.026;2023-03-15T05:02:39;98970.66;;;6.82;67.44
42761;BME280;31672;47.638;19.026;2023-03-15T05:07:43;98977.16;;;6.71;67.57
42761;BME280;31672;47.638;19.026;2023-03-15T05:12:46;98978.19;;;6.62;68.20
42761;BME280;31672;47.638;19.026;2023-03-15T05:17:49;98972.47;;;6.51;68.67
42761;BME280;31672;47.638;19.026;2023-03-15T05:22:57;98967.41;;;6.41;69.31
42761;BME280;31672;47.638;19.026;2023-03-15T05:28:01;98965.31;;;6.28;69.80
42761;BME280;31672;47.638;19.026;2023-03-15T05:33:06;98948.69;;;6.20;70.37
42761;BME280;31672;47.638;19.026;2023-03-15T05:38:11;98936.03;;;6.07;71.04
42761;BME280;31672;47.638;19.026;2023-03-15T05:43:16;98941.50;;;5.97;71.72
42761;BME280;31672;47.638;19.026;2023-03-15T05:48:19;98938.88;;;5.89;72.22
42761;BME280;31672;47.638;19.026;2023-03-15T05:53:22;98930.28;;;5.87;72.97
42761;BME280;31672;47.638;19.026;2023-03-15T05:58:25;98941.50;;;5.89;73.16
42761;BME280;31672;47.638;19.026;2023-03-15T06:03:30;98970.31;;;5.99;73.46
42761;BME280;31672;47.638;19.026;2023-03-15T06:08:36;98976.25;;;6.09;73.35
42761;BME280;31672;47.638;19.026;2023-03-15T06:13:39;98978.53;;;6.20;73.28
42761;BME280;31672;47.638;19.026;2023-03-15T06:18:42;98988.22;;;6.28;73.35
42761;BME280;31672;47.638;19.026;2023-03-15T06:23:45;98996.63;;;6.31;72.74
42761;BME280;31672;47.638;19.026;2023-03-15T06:28:48;98993.31;;;6.37;72.60
42761;BME280;31672;47.638;19.026;2023-03-15T06:33:51;99010.63;;;6.40;72.10
42761;BME280;31672;47.638;19.026;2023-03-15T06:38:53;99014.88;;;6.41;71.42
42761;BME280;31672;47.638;19.026;2023-03-15T06:43:57;99015.56;;;6.43;71.15
42761;BME280;31672;47.638;19.026;2023-03-15T06:49:00;99033.84;;;6.44;70.86
42761;BME280;31672;47.638;19.026;2023-03-15T06:54:03;99032.03;;;6.45;70.27
42761;BME280;31672;47.638;19.026;2023-03-15T06:59:06;99047.19;;;6.51;70.11
42761;BME280;31672;47.638;19.026;2023-03-15T07:04:09;99055.13;;;6.51;69.25
42761;BME280;31672;47.638;19.026;2023-03-15T07:09:12;99059.91;;;6.48;69.26
42761;BME280;31672;47.638;19.026;2023-03-15T07:14:15;99071.94;;;6.50;68.48
42761;BME280;31672;47.638;19.026;2023-03-15T07:19:18;99075.56;;;6.57;68.30
42761;BME280;31672;47.638;19.026;2023-03-15T07:24:21;99065.63;;;6.59;66.54
42761;BME280;31672;47.638;19.026;2023-03-15T07:29:25;99063.50;;;6.63;65.97
42761;BME280;31672;47.638;19.026;2023-03-15T07:34:28;99049.66;;;6.61;65.01
42761;BME280;31672;47.638;19.026;2023-03-15T07:39:31;99068.81;;;6.55;64.00
42761;BME280;31672;47.638;19.026;2023-03-15T07:44:34;99076.22;;;6.51;64.73
42761;BME280;31672;47.638;19.026;2023-03-15T07:49:37;99079.22;;;6.48;64.01
42761;BME280;31672;47.638;19.026;2023-03-15T07:54:40;99071.63;;;6.45;63.36
42761;BME280;31672;47.638;19.026;2023-03-15T07:59:43;99078.72;;;6.44;62.87
42761;BME280;31672;47.638;19.026;2023-03-15T08:04:46;99075.09;;;6.46;62.18
42761;BME280;31672;47.638;19.026;2023-03-15T08:09:50;99077.09;;;6.43;62.33
42761;BME280;31672;47.638;19.026;2023-03-15T08:14:53;99093.56;;;6.46;62.06
42761;BME280;31672;47.638;19.026;2023-03-15T08:19:56;99089.59;;;6.50;61.84
42761;BME280;31672;47.638;19.026;2023-03-15T08:24:59;99101.63;;;6.52;61.81
42761;BME280;31672;47.638;19.026;2023-03-15T08:30:05;99115.31;;;6.56;61.13
42761;BME280;31672;47.638;19.026;2023-03-15T08:35:10;99123.56;;;6.53;60.46
42761;BME280;31672;47.638;19.026;2023-03-15T08:40:19;99122.09;;;6.50;61.14
42761;BME280;31672;47.638;19.026;2023-03-15T08:45:28;99148.97;;;6.46;60.90
42761;BME280;31672;47.638;19.026;2023-03-15T08:50:32;99154.75;;;6.41;60.93
42761;BME280;31672;47.638;19.026;2023-03-15T08:55:36;99161.38;;;6.37;60.41
42761;BME280;31672;47.638;19.026;2023-03-15T09:00:39;99180.50;;;6.31;60.12
42761;BME280;31672;47.638;19.026;2023-03-15T09:05:42;99193.69;;;6.23;59.85
42761;BME280;31672;47.638;19.026;2023-03-15T09:10:46;99213.47;;;6.19;59.07
42761;BME280;31672;47.638;19.026;2023-03-15T09:15:53;99228.63;;;6.16;59.22
42761;BME280;31672;47.638;19.026;2023-03-15T09:20:56;99246.09;;;6.17;59.49
42761;BME280;31672;47.638;19.026;2023-03-15T09:26:00;99256.16;;;6.14;59.24
42761;BME280;31672;47.638;19.026;2023-03-15T09:31:04;99264.91;;;6.14;58.71
42761;BME280;31672;47.638;19.026;2023-03-15T09:36:08;99267.53;;;6.14;58.27
42761;BME280;31672;47.638;19.026;2023-03-15T09:41:41;99271.81;;;6.24;58.44
42761;BME280;31672;47.638;19.026;2023-03-15T09:53:23;99286.88;;;6.39;56.78
42761;BME280;31672;47.638;19.026;2023-03-15T09:58:30;99284.88;;;6.41;57.09
42761;BME280;31672;47.638;19.026;2023-03-15T10:08:54;99269.22;;;6.64;55.98
42761;BME280;31672;47.638;19.026;2023-03-15T10:24:52;99280.63;;;6.73;54.72
42761;BME280;31672;47.638;19.026;2023-03-15T10:29:57;99293.66;;;6.66;54.86
42761;BME280;31672;47.638;19.026;2023-03-15T10:35:16;99297.47;;;6.72;55.09
42761;BME280;31672;47.638;19.026;2023-03-15T10:40:57;99289.69;;;6.79;54.97
42761;BME280;31672;47.638;19.026;2023-03-15T10:46:10;99296.63;;;6.80;54.53
42761;BME280;31672;47.638;19.026;2023-03-15T10:51:30;99308.50;;;6.92;54.40
42761;BME280;31672;47.638;19.026;2023-03-15T11:02:17;99315.94;;;6.96;54.11
42761;BME280;31672;47.638;19.026;2023-03-15T11:07:21;99315.75;;;7.06;54.09
42761;BME280;31672;47.638;19.026;2023-03-15T11:12:29;99328.31;;;7.20;53.82
42761;BME280;31672;47.638;19.026;2023-03-15T11:17:43;99325.47;;;7.30;52.91
42761;BME280;31672;47.638;19.026;2023-03-15T11:22:46;99325.09;;;7.41;52.71
42761;BME280;31672;47.638;19.026;2023-03-15T11:27:50;99334.16;;;7.55;52.34
42761;BME280;31672;47.638;19.026;2023-03-15T11:33:00;99335.94;;;7.71;52.45
42761;BME280;31672;47.638;19.026;2023-03-15T11:38:34;99338.66;;;7.94;51.99
42761;BME280;31672;47.638;19.026;2023-03-15T11:44:03;99346.00;;;8.15;51.49
42761;BME280;31672;47.638;19.026;2023-03-15T11:54:59;99353.69;;;8.41;48.31
42761;BME280;31672;47.638;19.026;2023-03-15T12:05:51;99349.06;;;8.35;48.01
42761;BME280;31672;47.638;19.026;2023-03-15T12:10:54;99365.22;;;8.48;47.66
42761;BME280;31672;47.638;19.026;2023-03-15T12:15:58;99359.56;;;8.51;47.14
42761;BME280;31672;47.638;19.026;2023-03-15T12:21:10;99363.81;;;8.60;46.36
42761;BME280;31672;47.638;19.026;2023-03-15T12:26:47;99380.06;;;8.57;45.25
42761;BME280;31672;47.638;19.026;2023-03-15T12:52:52;99381.72;;;9.04;42.69
42761;BME280;31672;47.638;19.026;2023-03-15T12:57:56;99377.59;;;9.24;41.88
42761;BME280;31672;47.638;19.026;2023-03-15T13:03:11;99387.81;;;9.27;40.77
42761;BME280;31672;47.638;19.026;2023-03-15T13:08:22;99391.78;;;9.31;40.79
42761;BME280;31672;47.638;19.026;2023-03-15T13:30:46;99421.34;;;8.97;39.42
42761;BME280;31672;47.638;19.026;2023-03-15T13:36:13;99420.94;;;8.85;39.90
42761;BME280;31672;47.638;19.026;2023-03-15T13:41:29;99441.38;;;8.77;39.92
42761;BME280;31672;47.638;19.026;2023-03-15T13:46:33;99447.75;;;8.60;39.94
42761;BME280;31672;47.638;19.026;2023-03-15T13:51:37;99454.88;;;8.51;39.30
42761;BME280;31672;47.638;19.026;2023-03-15T13:57:21;99458.94;;;8.30;39.12
42761;BME280;31672;47.638;19.026;2023-03-15T14:08:03;99468.78;;;8.05;39.81
42761;BME280;31672;47.638;19.026;2023-03-15T14:13:32;99471.41;;;7.97;40.03
42761;BME280;31672;47.638;19.026;2023-03-15T14:18:37;99482.50;;;7.85;40.24
42761;BME280;31672;47.638;19.026;2023-03-15T14:23:47;99497.75;;;7.83;40.30
42761;BME280;31672;47.638;19.026;2023-03-15T14:29:28;99497.41;;;7.86;40.55
42761;BME280;31672;47.638;19.026;2023-03-15T14:34:42;99501.72;;;7.70;40.44
42761;BME280;31672;47.638;19.026;2023-03-15T14:39:45;99509.00;;;7.44;40.49
42761;BME280;31672;47.638;19.026;2023-03-15T14:44:48;99508.50;;;7.32;41.34
42761;BME280;31672;47.638;19.026;2023-03-15T14:49:53;99507.47;;;7.25;41.29
42761;BME280;31672;47.638;19.026;2023-03-15T14:54:56;99519.22;;;7.14;41.56
42761;BME280;31672;47.638;19.026;2023-03-15T15:00:01;99512.59;;;7.10;42.12
42761;BME280;31672;47.638;19.026;2023-03-15T15:05:28;99527.63;;;7.10;41.91
42761;BME280;31672;47.638;19.026;2023-03-15T15:10:32;99540.16;;;7.08;41.88
42761;BME280;31672;47.638;19.026;2023-03-15T15:15:40;99541.63;;;7.02;41.61
42761;BME280;31672;47.638;19.026;2023-03-15T15:21:00;99545.56;;;6.98;40.85
42761;BME280;31672;47.638;19.026;2023-03-15T15:26:23;99567.66;;;6.89;40.54
42761;BME280;31672;47.638;19.026;2023-03-15T15:31:29;99572.59;;;6.84;40.62
42761;BME280;31672;47.638;19.026;2023-03-15T15:36:42;99594.69;;;6.83;40.86
42761;BME280;31672;47.638;19.026;2023-03-15T15:41:45;99584.78;;;6.77;40.14
42761;BME280;31672;47.638;19.026;2023-03-15T15:46:48;99594.03;;;6.81;40.29
42761;BME280;31672;47.638;19.026;2023-03-15T15:51:52;99614.97;;;6.74;39.24
42761;BME280;31672;47.638;19.026;2023-03-15T15:56:57;99624.72;;;6.74;39.25
42761;BME280;31672;47.638;19.026;2023-03-15T16:02:00;99622.53;;;6.69;39.13
42761;BME280;31672;47.638;19.026;2023-03-15T16:07:04;99627.63;;;6.62;38.64
42761;BME280;31672;47.638;19.026;2023-03-15T16:12:12;99626.44;;;6.57;38.89
42761;BME280;31672;47.638;19.026;2023-03-15T16:17:21;99647.63;;;6.47;38.85
42761;BME280;31672;47.638;19.026;2023-03-15T16:22:24;99656.66;;;6.36;38.78
42761;BME280;31672;47.638;19.026;2023-03-15T16:27:29;99658.00;;;6.23;38.75
42761;BME280;31672;47.638;19.026;2023-03-15T16:32:32;99673.47;;;6.17;38.83
42761;BME280;31672;47.638;19.026;2023-03-15T16:37:46;99668.81;;;6.11;38.71
42761;BME280;31672;47.638;19.026;2023-03-15T16:42:50;99684.72;;;6.02;38.44
42761;BME280;31672;47.638;19.026;2023-03-15T16:47:58;99686.44;;;5.93;39.64
42761;BME280;31672;47.638;19.026;2023-03-15T16:53:05;99691.56;;;5.77;40.19
42761;BME280;31672;47.638;19.026;2023-03-15T16:58:19;99713.84;;;5.64;40.47
42761;BME280;31672;47.638;19.026;2023-03-15T17:03:22;99724.56;;;5.53;41.36
42761;BME280;31672;47.638;19.026;2023-03-15T17:08:30;99739.75;;;5.42;41.23
42761;BME280;31672;47.638;19.026;2023-03-15T17:13:35;99736.47;;;5.30;41.53
42761;BME280;31672;47.638;19.026;2023-03-15T17:18:42;99745.09;;;5.22;41.64
42761;BME280;31672;47.638;19.026;2023-03-15T17:23:47;99755.09;;;5.19;41.63
42761;BME280;31672;47.638;19.026;2023-03-15T17:28:52;99750.97;;;5.06;41.61
42761;BME280;31672;47.638;19.026;2023-03-15T17:33:56;99755.31;;;4.98;41.97
42761;BME280;31672;47.638;19.026;2023-03-15T17:39:00;99762.25;;;4.89;42.15
42761;BME280;31672;47.638;19.026;2023-03-15T17:44:09;99768.50;;;4.78;42.35
42761;BME280;31672;47.638;19.026;2023-03-15T17:49:12;99789.84;;;4.75;42.40
42761;BME280;31672;47.638;19.026;2023-03-15T17:54:18;99792.47;;;4.66;42.48
42761;BME280;31672;47.638;19.026;2023-03-15T17:59:23;99817.13;;;4.65;42.56
42761;BME280;31672;47.638;19.026;2023-03-15T18:04:29;99822.53;;;4.63;42.27
42761;BME280;31672;47.638;19.026;2023-03-15T18:09:32;99834.59;;;4.66;42.53
42761;BME280;31672;47.638;19.026;2023-03-15T18:14:36;99830.16;;;4.66;42.50
42761;BME280;31672;47.638;19.026;2023-03-15T18:19:39;99837.06;;;4.67;42.14
42761;BME280;31672;47.638;19.026;2023-03-15T18:24:43;99846.09;;;4.65;42.33
42761;BME280;31672;47.638;19.026;2023-03-15T18:29:51;99849.41;;;4.67;41.83
42761;BME280;31672;47.638;19.026;2023-03-15T18:34:55;99857.19;;;4.68;41.67
42761;BME280;31672;47.638;19.026;2023-03-15T18:39:57;99861.59;;;4.68;41.78
42761;BME280;31672;47.638;19.026;2023-03-15T18:45:00;99872.81;;;4.70;41.75
42761;BME280;31672;47.638;19.026;2023-03-15T18:50:04;99877.94;;;4.71;41.42
42761;BME280;31672;47.638;19.026;2023-03-15T18:55:15;99879.75;;;4.71;41.67
42761;BME280;31672;47.638;19.026;2023-03-15T19:00:29;99879.91;;;4.69;40.60
42761;BME280;31672;47.638;19.026;2023-03-15T19:05:36;99881.13;;;4.65;41.04
42761;BME280;31672;47.638;19.026;2023-03-15T19:10:39;99888.75;;;4.59;40.86
42761;BME280;31672;47.638;19.026;2023-03-15T19:15:49;99895.25;;;4.54;40.74
42761;BME280;31672;47.638;19.026;2023-03-15T19:20:55;99896.47;;;4.41;40.94
42761;BME280;31672;47.638;19.026;2023-03-15T19:25:58;99894.78;;;4.30;41.34
42761;BME280;31672;47.638;19.026;2023-03-15T19:31:01;99894.91;;;4.19;40.78
42761;BME280;31672;47.638;19.026;2023-03-15T19:36:06;99913.19;;;4.20;40.51
42761;BME280;31672;47.638;19.026;2023-03-15T19:41:10;99918.84;;;4.16;40.60
42761;BME280;31672;47.638;19.026;2023-03-15T19:46:14;99923.53;;;4.12;40.66
42761;BME280;31672;47.638;19.026;2023-03-15T19:51:22;99942.75;;;4.03;41.61
42761;BME280;31672;47.638;19.026;2023-03-15T19:56:25;99945.19;;;3.95;41.53
42761;BME280;31672;47.638;19.026;2023-03-15T20:01:27;99956.34;;;3.87;42.41
42761;BME280;31672;47.638;19.026;2023-03-15T20:06:31;99960.34;;;3.82;42.36
42761;BME280;31672;47.638;19.026;2023-03-15T20:11:34;99968.59;;;3.77;42.66
42761;BME280;31672;47.638;19.026;2023-03-15T20:16:37;99979.13;;;3.77;43.15
42761;BME280;31672;47.638;19.026;2023-03-15T20:21:40;99987.59;;;3.81;43.32
42761;BME280;31672;47.638;19.026;2023-03-15T20:26:45;99975.03;;;3.84;43.71
42761;BME280;31672;47.638;19.026;2023-03-15T20:31:49;99984.59;;;3.85;44.08
42761;BME280;31672;47.638;19.026;2023-03-15T20:36:52;99999.13;;;3.89;43.99
42761;BME280;31672;47.638;19.026;2023-03-15T20:41:55;99992.63;;;3.93;44.68
42761;BME280;31672;47.638;19.026;2023-03-15T20:46:58;99997.66;;;3.96;44.83
42761;BME280;31672;47.638;19.026;2023-03-15T20:52:02;100002.50;;;4.01;45.11
42761;BME280;31672;47.638;19.026;2023-03-15T20:57:06;100001.41;;;4.03;45.57
42761;BME280;31672;47.638;19.026;2023-03-15T21:02:10;100000.44;;;4.05;45.54
42761;BME280;31672;47.638;19.026;2023-03-15T21:07:13;100005.72;;;4.05;46.07
42761;BME280;31672;47.638;19.026;2023-03-15T21:12:16;100006.41;;;4.07;46.06
42761;BME280;31672;47.638;19.026;2023-03-15T21:17:21;100009.88;;;4.07;46.29
42761;BME280;31672;47.638;19.026;2023-03-15T21:22:24;100009.16;;;4.05;46.58
42761;BME280;31672;47.638;19.026;2023-03-15T21:27:27;100004.19;;;4.02;46.73
42761;BME280;31672;47.638;19.026;2023-03-15T21:32:30;99993.78;;;4.00;46.64
42761;BME280;31672;47.638;19.026;2023-03-15T21:37:33;100000.97;;;3.98;46.92
42761;BME280;31672;47.638;19.026;2023-03-15T21:42:37;99989.03;;;3.94;46.94
42761;BME280;31672;47.638;19.026;2023-03-15T21:47:40;99987.38;;;3.93;46.62
42761;BME280;31672;47.638;19.026;2023-03-15T21:52:43;100002.19;;;3.94;46.76
42761;BME280;31672;47.638;19.026;2023-03-15T21:57:46;99995.97;;;3.95;46.40
42761;BME280;31672;47.638;19.026;2023-03-15T22:02:49;100005.25;;;3.99;45.91
42761;BME280;31672;47.638;19.026;2023-03-15T22:07:57;100001.28;;;4.05;45.84
42761;BME280;31672;47.638;19.026;2023-03-15T22:13:00;100007.81;;;4.11;45.46
42761;BME280;31672;47.638;19.026;2023-03-15T22:18:03;100008.78;;;4.10;45.55
42761;BME280;31672;47.638;19.026;2023-03-15T22:23:06;100007.38;;;4.06;45.70
42761;BME280;31672;47.638;19.026;2023-03-15T22:28:10;100002.50;;;4.01;46.00
42761;BME280;31672;47.638;19.026;2023-03-15T22:33:14;100004.44;;;3.99;45.75
42761;BME280;31672;47.638;19.026;2023-03-15T22:38:17;100017.59;;;3.99;45.78
42761;BME280;31672;47.638;19.026;2023-03-15T22:43:20;100025.31;;;4.00;45.80
42761;BME280;31672;47.638;19.026;2023-03-15T22:48:23;100030.72;;;3.99;45.52
42761;BME280;31672;47.638;19.026;2023-03-15T22:53:27;100035.84;;;4.00;45.43
42761;BME280;31672;47.638;19.026;2023-03-15T22:58:30;100033.22;;;4.00;45.42
42761;BME280;31672;47.638;19.026;2023-03-15T23:03:34;100031.31;;;4.02;44.99
42761;BME280;31672;47.638;19.026;2023-03-15T23:08:37;100034.19;;;3.99;45.37
42761;BME280;31672;47.638;19.026;2023-03-15T23:13:40;100038.31;;;3.92;45.64
42761;BME280;31672;47.638;19.026;2023-03-15T23:18:44;100048.13;;;3.90;45.41
42761;BME280;31672;47.638;19.026;2023-03-15T23:23:47;100056.53;;;3.84;45.76
42761;BME280;31672;47.638;19.026;2023-03-15T23:28:51;100066.59;;;3.79;46.00
42761;BME280;31672;47.638;19.026;2023-03-15T23:33:55;100080.59;;;3.68;45.88
42761;BME280;31672;47.638;19.026;2023-03-15T23:38:58;100087.69;;;3.57;46.57
42761;BME280;31672;47.638;19.026;2023-03-15T23:44:02;100082.50;;;3.45;46.76
42761;BME280;31672;47.638;19.026;2023-03-15T23:49:06;100095.91;;;3.31;47.50
42761;BME280;31672;47.638;19.026;2023-03-15T23:54:09;100112.66;;;3.19;47.32
42761;BME280;31672;47.638;19.026;2023-03-15T23:59:13;100114.34;;;2.98;48.03
